Aktuální počasí v Česku a ve světě - METAR

Seznam meteostanic umístěných nejčasteji na letišti v ČR a ve světě

Vyhledat místa podle abecedy:
A B C D E F G H I J K L M N O P Q R S T U V W X Y Z

Filtrovat:

ID stanice:
a/nebo
Název místa (fulltext):
 
Místo (ID)Naposledy načteno 
Kadaň - Tušimice (Tusimice) 02.03.2021 01:00 UTC Zobrazit data
Místo: Kadaň - Tušimice
Teplota: -1 °C (pocitová: -7.2 °C)
Vítr: 2 m/s z(e) 280°
Počasí: zataženo
Dohlednost: 4100 m
Zákl. oblačnosti: N/A
Vlhkost: 93%
Karlovy Vary (K.Vary) 02.03.2021 02:00 UTC Zobrazit data
Místo: Karlovy Vary
Teplota: -1 °C (pocitová: -5.5 °C)
Vítr: 1 m/s z(e) 180°
Počasí: slunečno
Dohlednost: 30 km
Zákl. oblačnosti: N/A
Vlhkost: 93%
Kocelovice (Kocelovice) 02.03.2021 01:00 UTC Zobrazit data
Místo: Kocelovice
Teplota: 0 °C (pocitová: -7.3 °C)
Vítr: 3 m/s z(e) 70°
Počasí: mlha
Dohlednost: 100 m
Zákl. oblačnosti: 1/8 7200 m
Vlhkost: 93%
Kopisty (Kopisty) 01.03.2021 21:00 UTC Zobrazit data
Místo: Kopisty
Teplota: 0 °C (pocitová: 13.1 °C)
Vítr: 0 m/s z(e) 0°
Počasí: zataženo
Dohlednost: 2500 m
Zákl. oblačnosti: N/A
Vlhkost: 93%
Kostelní Myslová (K.Myslova) 01.03.2021 23:00 UTC Zobrazit data
Místo: Kostelní Myslová
Teplota: 1 °C (pocitová: -3.1 °C)
Vítr: 1 m/s z(e) 70°
Počasí: zataženo
Dohlednost: 3500 m
Zákl. oblačnosti: N/A
Vlhkost: 93%
Křešín - Kramolín (Kramolin) 02.03.2021 02:00 UTC Zobrazit data
Místo: Křešín - Kramolín
Teplota: -2 °C (pocitová: -6.7 °C)
Vítr: 1 m/s z(e) 0°
Počasí: mlha
Dohlednost: 400 m
Zákl. oblačnosti: 1/8 150 m
Vlhkost: 100%
Kuchařovice - Znojmo (Kucharovic) 02.03.2021 02:00 UTC Zobrazit data
Místo: Kuchařovice - Znojmo
Teplota: -1 °C (pocitová: -8.7 °C)
Vítr: 3 m/s z(e) 360°
Počasí: zataženo
Dohlednost: 3000 m
Zákl. oblačnosti: N/A
Vlhkost: 100%
Kabul (OAKB) 02.03.2021 01:50 UTC Zobrazit METAR
OAKB 020150Z VRB01KT 6000 NSC 03/M05 Q1024 RMK A3024 WHT WHT
Kajaani (EFKI) 02.03.2021 01:50 UTC Zobrazit METAR
EFKI 020150Z AUTO 28012KT CAVOK M02/M05 Q1005
Kardla (EEKA) 01.03.2021 15:50 UTC Zobrazit METAR
EEKA 011550Z 25006KT 200V300 CAVOK 03/M01 Q1020
Karlsruhe/ Baden-Baden (EDSB) 01.03.2021 21:50 UTC Zobrazit METAR
EDSB 012150Z 04002KT CAVOK 06/00 Q1029
Karup (EKKA) 01.03.2021 22:50 UTC Zobrazit METAR
EKKA 012250Z AUTO 27007KT 9999 BKN002/// 03/02 Q1034
Kathmandu (VNKT) 02.03.2021 01:50 UTC Zobrazit METAR
VNKT 020150Z 04003KT 7000 FEW015 13/05 Q1017 NOSIG
Katowice (EPKT) 02.03.2021 02:00 UTC Zobrazit METAR
EPKT 020200Z 25007KT 2500 BR OVC002 01/M00 Q1034
Kaunas (EYKA) 02.03.2021 01:50 UTC Zobrazit METAR
EYKA 020150Z 26012KT 9999 OVC007 02/M00 Q1025
Kavala (LGKV) 02.03.2021 01:50 UTC Zobrazit METAR
LGKV 020150Z 05005KT 9999 FEW030 SCT080 05/01 Q1032
Kazan (UWKD) Zatím nenačteno  
Kefallinia (LGKF) 01.03.2021 17:50 UTC Zobrazit METAR
LGKF 011750Z 00000KT 9999 FEW012 12/10 Q1024
Kemi (EFKE) 02.03.2021 01:50 UTC Zobrazit METAR
EFKE 020150Z AUTO 30007KT CAVOK M01/M05 Q1007
Kerkira (LGKR) 01.03.2021 23:50 UTC Zobrazit METAR
LGKR 012350Z 00000KT CAVOK 08/06 Q1026 NOSIG
Kerry (EIKY) 01.03.2021 19:00 UTC Zobrazit METAR
EIKY 011900Z 13005KT 100V170 9999 OVC027 07/03 Q1027
Khartoum (HSSS) 02.03.2021 02:00 UTC Zobrazit METAR
HSSS 020200Z 01012KT CAVOK 20/M07 Q1012 NOSIG
Kigali (HRYR) 02.03.2021 02:00 UTC Zobrazit METAR
HRYR 020200Z 16002KT 9999 FEW026 18/15 Q1017 NOSIG
Kingston (MKJP) 02.03.2021 02:00 UTC Zobrazit METAR
MKJP 020200Z 11005KT 9999 FEW022 26/21 Q1015
Kingstown (TVSV) 13.12.2019 20:43 UTC Zobrazit METAR
TVSV 132043Z 12005G18KT 4000 SHRA BKN014 27/23 Q1010
Kinshasa (FZAA) 02.03.2021 02:00 UTC Zobrazit METAR
FZAA 020200Z 27004KT 8000 SCT016 BKN080 26/24 Q1008 NOSIG
Kittila (EFKT) 02.03.2021 01:50 UTC Zobrazit METAR
EFKT 020150Z AUTO 31006KT 280V340 CAVOK M04/M08 Q1005
Klagenfurt (LOWK) 01.03.2021 17:50 UTC Zobrazit METAR
LOWK 011750Z 10004KT CAVOK 07/M02 Q1032 NOSIG
Kortrijk-Wevelgem (EBKT) Zatím nenačteno  
Kosice (LZKZ) 02.03.2021 02:00 UTC Zobrazit METAR
LZKZ 020200Z 03003KT CAVOK M03/M04 Q1034
Krakow (EPKK) 02.03.2021 02:00 UTC Zobrazit METAR
EPKK 020200Z 21003KT 2000 BR NSC M02/M02 Q1034
Kuala Lumpur (WMKK) 02.03.2021 02:00 UTC Zobrazit METAR
WMKK 020200Z 05004KT 340V140 9000 FEW018 29/22 Q1012 NOSIG
Kuopio (EFKU) 02.03.2021 01:50 UTC Zobrazit METAR
EFKU 020150Z AUTO 29012KT CAVOK 00/M05 Q1007
Kuressaare (EEKE) 01.03.2021 17:50 UTC Zobrazit METAR
EEKE 011750Z 28004KT 240V340 CAVOK 02/01 Q1022 R17/190095
Kuwait (OKBK) 02.03.2021 02:00 UTC Zobrazit METAR
OKBK 020200Z 00000KT 7000 SKC 13/11 Q1018 NOSIG
Kyiv (UKBB) Zatím nenačteno  
Reklama

Reklama


Počasí na Váš email

Emaily jsou bez reklamy a bez spamu



Odhlásit newsletter


Další české internetové stránky (nejen) o počasí najdete v katalogu TOPlist - weby o počasí nebo vyhledejte na internetu, co jste tu na 🌞 Slunečnu ⛅ zatím nenašli:
⭐ Přidat Slunečno.cz do oblíbených | 🏠 Nastavit Slunečno.cz jako HOMEPAGE

⬆️ Posunout stránku nahoru ⬆️
Reklama